Metar Cercanos

 

LEPA - Palma De Mallorc, Spain
Distance from station: ONO 38km
Actualización: Thu, 06-Oct-2022 10:00am CEST
Few Clouds
Few Clouds
 Viento del E
Viento: E 6 km/h
Temperatura: 22°C
Rocío: 18°C
Humedad: 78%
Barómetro: 1025 hPa
Clouds: Few Clouds
Visibility: 10 km
Cloud details: Few Clouds 610 m
Few Clouds 762 m
2022/10/06 08:00 LEPA 060800Z 08003KT 9999 FEW020 FEW025TCU 22/18 Q1025 NOSIG
LEMH - Mahon/Menorca Is, Spain
Distance from station: ENE 105km
Actualización: Thu, 06-Oct-2022 10:00am CEST
Few Clouds
Few Clouds
 Viento del ESE
Viento: ESE 19 km/h
Temperatura: 23°C
Rocío: 19°C
Humedad: 78%
Barómetro: 1025 hPa
Clouds: Few Clouds
Visibility: 10 km
Cloud details: Few Clouds 610 m
2022/10/06 08:00 LEMH 060800Z 11010KT 080V140 9999 FEW020 23/19 Q1025
 
LEIB - Ibiza/Es Codola, Spain
Distance from station: OSO 165km
Actualización: Thu, 06-Oct-2022 10:00am CEST
Few Clouds
Few Clouds
 Viento del NE
Viento: NE 15 km/h
Temperatura: 22°C
Rocío: 19°C
Humedad: 83%
Barómetro: 1024 hPa
Clouds: Few Clouds
Visibility: 10 km
Cloud details: Few Clouds 518 m
Parcialmente nuboso 762 m
Few Clouds 762 m
2022/10/06 08:00 LEIB 060800Z 04008KT 9999 FEW017 SCT025 FEW025TCU 22/19 Q1024 NOSIG
LEBL - Barcelona Airpor, Spain
Distance from station: NNO 225km
Actualización: Thu, 06-Oct-2022 10:00am CEST
Few Clouds
Few Clouds
 Viento del NNO
Viento: NNO 11 km/h
Temperatura: 18°C
Rocío: 14°C
Humedad: 78%
Barómetro: 1027 hPa
Clouds: Few Clouds
Visibility: 10 km
Cloud details: Few Clouds 610 m
2022/10/06 08:00 LEBL 060800Z 33006KT 290V350 9999 FEW020 18/14 Q1027 NOSIG
 
LEVC - Valencia (civ/Mi, Spain
Distance from station: NO 188km
Actualización: Thu, 06-Oct-2022 10:00am CEST
Few Clouds
Few Clouds
 Viento del NO
Viento: NO 11 km/h
Temperatura: 19°C
Rocío: 16°C
Humedad: 83%
Barómetro: 1026 hPa
Clouds: Few Clouds
Visibility: 10 km
Cloud details: Parcialmente nuboso 671 m
Few Clouds 853 m
2022/10/06 08:00 LEVC 060800Z 32006KT 9999 SCT022 FEW028TCU 19/16 Q1026 NOSIG
LEGE - Gerona/Costa Bra, Spain
Distance from station: N 276km
Actualización: Thu, 06-Oct-2022 10:00am CEST
Parcialmente nuboso
Parcialmente nuboso
 Viento del NNE
Viento: NNE 19 km/h
Temperatura: 20°C
Rocío: 17°C
Humedad: 83%
Barómetro: 1028 hPa
Clouds: Parcialmente nuboso
Visibility: 10 km
Cloud details: Few Clouds 610 m
Parcialmente nuboso 1829 m
2022/10/06 08:00 LEGE 060800Z 03010KT 9999 FEW020 SCT060 20/17 Q1028
 
LEAL - Alicante/El Alte, Spain
Distance from station: OSO 344km
Actualización: Thu, 06-Oct-2022 10:00am CEST
Few Clouds
Few Clouds
 Viento del varies
Viento: varies 7 km/h
Temperatura: 21°C
Rocío: 16°C
Humedad: 73%
Barómetro: 1024 hPa
Clouds: Few Clouds
Visibility: 10 km
Cloud details: Few Clouds 1219 m
2022/10/06 08:00 LEAL 060800Z VRB04KT 9999 FEW040 21/16 Q1024 NOSIG
LEAM - Almeria Airport, Spain
Distance from station: SSO 56km
Actualización: Thu, 06-Oct-2022 10:00am CEST
Despejado
Despejado
 Viento del varies
Viento: varies 6 km/h
Temperatura: 23°C
Rocío: 17°C
Humedad: 69%
Barómetro: 1023 hPa
Resumen: Despejado
Visibility: greater than 10 km
2022/10/06 08:00 LEAM 060800Z VRB03KT CAVOK 23/17 Q1023
 
LEZG - Zaragoza (mil/Ci, Spain
Distance from station: NO 431km
Actualización: Thu, 06-Oct-2022 10:00am CEST
Few Clouds
Few Clouds
 Viento del O
Viento: O 15 km/h
Temperatura: 17°C
Rocío: 12°C
Humedad: 73%
Barómetro: 1029 hPa
Clouds: Few Clouds
Visibility: 10 km
Cloud details: Few Clouds 762 m
2022/10/06 08:00 LEZG 060800Z 28008KT 9999 FEW025 17/12 Q1029
LEMD - Madrid/Barajas, Spain
Distance from station: ONO 234km
Actualización: Thu, 06-Oct-2022 10:00am CEST
Despejado
Despejado
 Viento del varies
Viento: varies 2 km/h
Temperatura: 16°C
Rocío: 8°C
Humedad: 59%
Barómetro: 1027 hPa
Resumen: Despejado
Visibility: greater than 10 km
2022/10/06 08:00 LEMD 060800Z VRB01KT CAVOK 16/08 Q1027 NOSIG
 
LEGR - Granada Airport, Spain
Distance from station: OSO 62km
Actualización: Thu, 06-Oct-2022 10:00am CEST
Despejado
Despejado
 Viento del calm
Viento: Calma
Temperatura: 17°C
Rocío: 14°C
Humedad: 83%
Barómetro: 1025 hPa
Resumen: Despejado
Visibility: greater than 10 km
2022/10/06 08:00 LEGR 060800Z 00000KT CAVOK 17/14 Q1025
LEMG - Malaga (civ/Mil), Spain
Distance from station: OSO 227km
Actualización: Thu, 06-Oct-2022 10:00am CEST
Parcialmente nuboso
Parcialmente nuboso
 Viento del O
Viento: O 11 km/h
Temperatura: 20°C
Rocío: 17°C
Humedad: 83%
Barómetro: 1024 hPa
Clouds: Parcialmente nuboso
Visibility: 10 km
Cloud details: Few Clouds 549 m
Parcialmente nuboso 1036 m
2022/10/06 08:00 LEMG 060800Z 28006KT 9999 FEW018 SCT034 20/17 Q1024 NOSIG
 
LEZL - Sevilla (civ/Mil, Spain
Distance from station: S 318km
Actualización: Thu, 06-Oct-2022 10:00am CEST
Despejado
Despejado
 Viento del NE
Viento: NE 11 km/h
Temperatura: 20°C
Rocío: 14°C
Humedad: 69%
Barómetro: 1022 hPa
Resumen: Despejado
Visibility: greater than 10 km
2022/10/06 08:00 LEZL 060800Z 04006KT CAVOK 20/14 Q1022 NOSIG
LEVT - Vitoria, Spain
Distance from station: NO 226km
Actualización: Thu, 06-Oct-2022 10:00am CEST
Few Clouds
Few Clouds
 Viento del calm
Viento: Calma
Temperatura: 14°C
Rocío: 13°C
Humedad: 94%
Barómetro: 1030 hPa
Clouds: Few Clouds
Visibility: 9 km
Cloud details: Few Clouds 823 m
2022/10/06 08:00 LEVT 060800Z 00000KT 9000 FEW027 14/13 Q1030
 
LEBB - Bilbao/Sondica, Spain
Distance from station: NNO 235km
Actualización: Thu, 06-Oct-2022 10:00am CEST
Cubierto
Cubierto
 Viento del ENE
Viento: ENE 6 km/h
Temperatura: 18°C
Rocío: 16°C
Humedad: 88%
Barómetro: 1030 hPa
Clouds: Cubierto
Visibility: 10 km
Cloud details: Muy nuboso 945 m
Cubierto 1554 m
2022/10/06 08:00 LEBB 060800Z 07003KT 010V110 9999 BKN031 OVC051 18/16 Q1030 NOSIG
LESO - San Sebastian/Fu, Spain
Distance from station: N 231km
Actualización: Thu, 06-Oct-2022 10:00am CEST
Muy nuboso
Muy nuboso
 Viento del varies
Viento: varies 4 km/h
Temperatura: 18°C
Rocío: 16°C
Humedad: 88%
Barómetro: 1030 hPa
Clouds: Muy nuboso
Visibility: 10 km
Cloud details: Parcialmente nuboso 610 m
Muy nuboso 1067 m
2022/10/06 08:00 LESO 060800Z VRB02KT 9999 SCT020 BKN035 18/16 Q1030
 
LEVD - Valladolid(Mil/C, Spain
Distance from station: ONO 239km
Actualización: Thu, 06-Oct-2022 10:00am CEST
Despejado
Despejado
 Viento del ENE
Viento: ENE 26 km/h
Temperatura: 14°C
Rocío: 10°C
Humedad: 77%
Barómetro: 1027 hPa
Resumen: Despejado
Visibility: greater than 10 km
2022/10/06 08:00 LEVD 060800Z 07014KT CAVOK 14/10 Q1027
LESA - Salamanca (civ/M, Spain
Distance from station: ONO 349km
Actualización: Thu, 06-Oct-2022 10:00am CEST
Parcialmente nuboso
Parcialmente nuboso
 Viento del varies
Viento: varies 4 km/h
Temperatura: 12°C
Rocío: 8°C
Humedad: 77%
Barómetro: 1027 hPa
Clouds: Parcialmente nuboso
Visibility: 9 km
2022/10/06 08:00 LESA 060800Z VRB02KT 9000 NSC 12/08 Q1027
 
LEXJ - Santander/Paraya, Spain
Distance from station: NNO 247km
Actualización: Thu, 06-Oct-2022 10:00am CEST
Mist, Muy nuboso
Mist, Muy nuboso
 Viento del calm
Viento: Calma
Temperatura: 17°C
Rocío: 16°C
Humedad: 94%
Barómetro: 1029 hPa
Resumen: Mist
Clouds: Muy nuboso
Visibility: 5 km
Cloud details: Muy nuboso 305 m
Muy nuboso 1158 m
2022/10/06 08:00 LEXJ 060800Z 00000KT 5000 BR BKN010 BKN038 17/16 Q1029
LEAS - Asturias/Aviles, Spain
Distance from station: NO 214km
Actualización: Thu, 06-Oct-2022 10:00am CEST
Muy nuboso
Muy nuboso
 Viento del E
Viento: E 13 km/h
Temperatura: 16°C
Rocío: 16°C
Humedad: 100%
Barómetro: 1029 hPa
Clouds: Muy nuboso
Visibility: 8 km
Cloud details: Muy nuboso 122 m
2022/10/06 08:00 LEAS 060800Z 09007KT 060V140 8000 BKN004 16/16 Q1029 TEMPO RA
 
LECO - La Coruna/Alvedr, Spain
Distance from station: ONO 222km
Actualización: Thu, 06-Oct-2022 10:00am CEST
Muy nuboso
Muy nuboso
 Viento del N
Viento: N 7 km/h
Temperatura: 18°C
Rocío: 15°C
Humedad: 83%
Barómetro: 1027 hPa
Clouds: Muy nuboso
Visibility: 10 km
Cloud details: Few Clouds 305 m
Muy nuboso 914 m
2022/10/06 08:00 LECO 060800Z 36004KT 290V070 9999 FEW010 BKN030 18/15 Q1027 NOSIG
LEVX - Vigo/Peinador, Spain
Distance from station: O 214km
Actualización: Thu, 06-Oct-2022 10:00am CEST
Despejado
Despejado
 Viento del SSO
Viento: SSO 11 km/h
Temperatura: 17°C
Rocío: 14°C
Humedad: 83%
Barómetro: 1024 hPa
Resumen: Despejado
Visibility: greater than 10 km
2022/10/06 08:00 LEVX 060800Z 21006KT 160V230 CAVOK 17/14 Q1024 NOSIG